createdAt,value
2022-12-08T00:04:05.229Z,18.40
2022-12-08T00:09:25.107Z,23.63
2022-12-08T00:14:30.563Z,19.55
2022-12-08T00:19:33.566Z,18.50
2022-12-08T00:24:38.460Z,21.35
2022-12-08T00:29:44.263Z,18.65
2022-12-08T00:34:47.003Z,16.45
2022-12-08T00:39:49.746Z,19.92
2022-12-08T00:44:54.525Z,15.75
2022-12-08T00:49:57.274Z,17.00
2022-12-08T00:54:59.968Z,18.10
2022-12-08T01:00:05.148Z,19.63
2022-12-08T01:05:08.959Z,15.75
2022-12-08T01:10:11.708Z,18.02
2022-12-08T01:15:15.700Z,15.45
2022-12-08T01:20:18.769Z,17.25
2022-12-08T01:25:21.540Z,15.98
2022-12-08T01:30:25.700Z,17.60
2022-12-08T01:35:28.530Z,15.02
2022-12-08T01:40:31.303Z,15.80
2022-12-08T01:45:35.418Z,13.70
2022-12-08T01:50:39.615Z,15.88
2022-12-08T01:55:45.838Z,13.40
2022-12-08T02:00:50.699Z,12.07
2022-12-08T02:05:53.791Z,15.23
2022-12-08T02:10:56.486Z,13.68
2022-12-08T02:16:05.498Z,11.77
2022-12-08T02:21:11.261Z,11.30
2022-12-08T02:26:51.001Z,10.07
2022-12-08T02:32:06.330Z,12.75
2022-12-08T02:37:17.150Z,11.20
2022-12-08T02:42:26.201Z,11.20
2022-12-08T02:47:29.540Z,11.27
2022-12-08T02:52:46.783Z,9.23
2022-12-08T02:58:01.436Z,12.48
2022-12-08T03:03:09.788Z,12.07
2022-12-08T03:08:16.451Z,10.23
2022-12-08T03:13:22.509Z,9.77
2022-12-08T03:18:29.846Z,10.05
2022-12-08T03:23:34.334Z,10.38
2022-12-08T03:28:37.029Z,9.10
2022-12-08T03:33:42.290Z,9.63
2022-12-08T03:38:47.652Z,8.98
2022-12-08T03:43:52.056Z,8.07
2022-12-08T03:48:54.855Z,8.35
2022-12-08T03:53:58.968Z,8.60
2022-12-08T03:59:01.994Z,8.13
2022-12-08T04:04:04.811Z,8.40
2022-12-08T04:09:08.951Z,8.75
2022-12-08T04:14:11.634Z,7.50
2022-12-08T04:19:14.943Z,8.43
2022-12-08T04:24:19.345Z,6.50
2022-12-08T04:29:22.105Z,8.40
2022-12-08T04:34:25.005Z,9.07
2022-12-08T04:39:29.075Z,8.23
2022-12-08T04:44:31.801Z,7.85
2022-12-08T04:49:34.581Z,6.95
2022-12-08T04:54:38.727Z,8.07
2022-12-08T04:59:41.478Z,7.88
2022-12-08T05:04:44.215Z,8.98
2022-12-08T05:09:48.436Z,7.22
2022-12-08T05:14:51.195Z,10.20
2022-12-08T05:19:54.122Z,7.97
2022-12-08T05:24:58.160Z,6.53
2022-12-08T05:30:01.133Z,7.30
2022-12-08T05:35:04.021Z,6.55
2022-12-08T05:40:09.884Z,6.22
2022-12-08T05:45:12.595Z,7.38
2022-12-08T05:50:15.287Z,7.15
2022-12-08T05:55:19.432Z,7.65
2022-12-08T06:00:22.888Z,7.75
2022-12-08T06:05:25.682Z,6.70
2022-12-08T06:10:29.879Z,7.50
2022-12-08T06:15:32.667Z,6.57
2022-12-08T06:20:35.613Z,7.72
2022-12-08T06:25:39.650Z,6.20
2022-12-08T06:30:42.301Z,5.65
2022-12-08T06:35:44.970Z,5.75
2022-12-08T06:40:55.774Z,7.40
2022-12-08T06:45:58.571Z,6.72
2022-12-08T06:51:07.492Z,6.55
2022-12-08T06:56:12.515Z,5.80
2022-12-08T07:01:15.593Z,6.55
2022-12-08T07:06:21.681Z,6.05
2022-12-08T07:11:25.743Z,6.70
2022-12-08T07:16:28.457Z,6.13
2022-12-08T07:21:31.150Z,6.60
2022-12-08T07:26:35.207Z,6.82
2022-12-08T07:31:38.096Z,6.30
2022-12-08T07:36:40.922Z,6.80
2022-12-08T07:41:44.993Z,6.50
2022-12-08T07:46:47.695Z,5.95
2022-12-08T07:51:50.552Z,6.00
2022-12-08T07:56:54.613Z,6.03
2022-12-08T08:02:22.357Z,5.95
2022-12-08T08:07:20.056Z,5.70
2022-12-08T08:12:32.383Z,5.15
2022-12-08T08:17:36.084Z,5.25
2022-12-08T08:22:38.830Z,6.70
2022-12-08T08:27:43.424Z,6.53
2022-12-08T08:32:46.168Z,7.10
2022-12-08T08:37:49.617Z,5.15
2022-12-08T08:42:53.795Z,7.35
2022-12-08T08:47:56.520Z,5.32
2022-12-08T08:52:59.193Z,5.57
2022-12-08T08:58:03.267Z,4.57
2022-12-08T09:03:05.996Z,9.85
2022-12-08T09:08:08.781Z,6.07
2022-12-08T09:13:13.046Z,4.95
2022-12-08T09:18:15.794Z,5.05
2022-12-08T09:23:18.457Z,5.03
2022-12-08T09:28:22.477Z,5.28
2022-12-08T09:33:25.151Z,4.03
2022-12-08T09:38:27.799Z,4.30
2022-12-08T09:43:47.674Z,4.57
2022-12-08T09:48:55.622Z,4.68
2022-12-08T09:54:02.068Z,4.80
2022-12-08T09:59:11.844Z,4.75
2022-12-08T10:04:23.667Z,6.65
2022-12-08T10:09:32.066Z,5.70
2022-12-08T10:14:41.603Z,6.40
2022-12-08T10:19:45.478Z,4.40
2022-12-08T10:24:53.819Z,5.22
2022-12-08T10:29:57.904Z,10.88
2022-12-08T10:35:04.591Z,6.80
2022-12-08T10:40:11.716Z,10.27
2022-12-08T10:45:24.086Z,17.98
2022-12-08T10:50:34.454Z,15.13
2022-12-08T10:55:42.030Z,12.25
2022-12-08T11:00:46.204Z,11.05
2022-12-08T11:05:49.023Z,7.78
2022-12-08T11:10:51.701Z,13.57
2022-12-08T11:15:56.847Z,12.60
2022-12-08T11:21:03.955Z,10.65
2022-12-08T11:26:11.717Z,9.90
2022-12-08T11:31:24.032Z,9.98
2022-12-08T11:36:28.441Z,10.65
2022-12-08T11:41:33.203Z,8.60
2022-12-08T11:46:41.327Z,6.95
2022-12-08T11:51:47.936Z,8.00
2022-12-08T11:56:52.752Z,10.00
2022-12-08T12:01:58.053Z,7.72
2022-12-08T12:07:34.464Z,8.20
2022-12-08T12:12:48.948Z,7.88
2022-12-08T12:17:54.763Z,7.50
2022-12-08T12:22:59.772Z,5.60
2022-12-08T12:28:04.618Z,8.68
2022-12-08T12:33:13.406Z,8.38
2022-12-08T12:38:41.473Z,7.05
2022-12-08T12:44:23.945Z,9.35
2022-12-08T12:50:09.115Z,6.30
2022-12-08T12:55:29.923Z,6.18
2022-12-08T13:00:34.040Z,6.43
2022-12-08T13:05:49.092Z,7.10
2022-12-08T13:11:00.735Z,6.18
2022-12-08T13:16:17.179Z,5.93
2022-12-08T13:21:23.119Z,6.72
2022-12-08T13:26:27.003Z,9.18
2022-12-08T13:31:48.297Z,5.90
2022-12-08T13:37:18.828Z,7.53
2022-12-08T13:42:25.892Z,5.55
2022-12-08T13:47:34.796Z,6.35
2022-12-08T13:58:07.773Z,5.85
2022-12-08T14:03:14.103Z,6.63
2022-12-08T14:08:36.259Z,7.38
2022-12-08T14:13:43.766Z,5.72
2022-12-08T14:18:47.846Z,6.97
2022-12-08T14:23:50.563Z,5.07
2022-12-08T14:28:53.387Z,5.90
2022-12-08T14:33:57.798Z,5.88
2022-12-08T14:39:00.525Z,7.35
2022-12-08T14:44:03.272Z,5.72
2022-12-08T14:49:33.567Z,6.22
2022-12-08T14:54:36.536Z,5.18
2022-12-08T14:59:40.359Z,4.72
2022-12-08T15:04:46.476Z,5.13
2022-12-08T15:09:50.394Z,7.72
2022-12-08T15:14:57.255Z,5.15
2022-12-08T15:20:02.589Z,4.45
2022-12-08T15:25:09.619Z,6.55
2022-12-08T15:30:14.273Z,8.32
2022-12-08T15:35:18.275Z,5.40
2022-12-08T15:40:22.841Z,4.93
2022-12-08T15:45:28.817Z,6.03
2022-12-08T15:50:32.856Z,5.78
2022-12-08T15:55:38.699Z,6.63
2022-12-08T16:00:57.906Z,5.18
2022-12-08T16:06:50.824Z,5.13
2022-12-08T16:12:05.216Z,6.70
2022-12-08T16:17:05.550Z,5.32
2022-12-08T16:33:01.904Z,5.30
2022-12-08T16:38:06.181Z,5.57
2022-12-08T16:43:10.065Z,5.43
2022-12-08T16:48:15.333Z,4.80
2022-12-08T16:53:19.356Z,5.10
2022-12-08T16:58:22.016Z,5.85
2022-12-08T17:03:24.705Z,5.25
2022-12-08T17:08:28.785Z,4.55
2022-12-08T17:13:31.484Z,5.03
2022-12-08T17:18:34.221Z,4.93
2022-12-08T17:23:38.270Z,4.63
2022-12-08T17:29:00.045Z,4.00
2022-12-08T17:34:05.197Z,5.47
2022-12-08T17:39:14.854Z,5.20
2022-12-08T17:44:21.500Z,5.10
2022-12-08T17:49:26.352Z,4.05
2022-12-08T17:54:30.460Z,3.63
2022-12-08T17:59:33.835Z,3.88
2022-12-08T18:04:36.571Z,5.72
2022-12-08T18:09:40.636Z,4.03
2022-12-08T18:14:46.064Z,4.40
2022-12-08T18:19:48.759Z,4.20
2022-12-08T18:24:52.780Z,4.32
2022-12-08T18:29:55.520Z,6.53
2022-12-08T18:34:58.262Z,3.97
2022-12-08T18:40:02.536Z,5.22
2022-12-08T18:45:07.205Z,5.22
2022-12-08T18:50:10.991Z,4.35
2022-12-08T18:55:15.298Z,5.20
2022-12-08T19:00:19.881Z,4.57
2022-12-08T19:05:22.532Z,4.65
2022-12-08T19:10:26.757Z,4.47
2022-12-08T19:15:29.534Z,3.75
2022-12-08T19:20:32.255Z,4.07
2022-12-08T19:25:36.249Z,6.65
2022-12-08T19:30:39.004Z,4.45
2022-12-08T19:35:41.756Z,4.22
2022-12-08T19:41:03.298Z,6.15
2022-12-08T19:46:06.295Z,4.35
2022-12-08T19:51:09.372Z,5.28
2022-12-08T19:56:13.403Z,4.40
2022-12-08T20:01:17.480Z,4.65
2022-12-08T20:06:20.548Z,4.55
2022-12-08T20:11:24.610Z,5.13
2022-12-08T20:16:27.420Z,3.50
2022-12-08T20:21:30.301Z,5.75
2022-12-08T20:26:34.367Z,4.90
2022-12-08T20:31:37.210Z,3.53
2022-12-08T20:36:39.984Z,4.57
2022-12-08T20:41:44.882Z,3.67
2022-12-08T20:46:49.583Z,5.15
2022-12-08T20:51:52.699Z,5.10
2022-12-08T20:56:56.970Z,4.28
2022-12-08T21:02:00.379Z,4.63
2022-12-08T21:07:03.713Z,4.15
2022-12-08T21:12:08.201Z,5.20
2022-12-08T21:17:11.200Z,5.20
2022-12-08T21:22:14.079Z,5.32
2022-12-08T21:27:18.422Z,4.88
2022-12-08T21:32:24.492Z,4.47
2022-12-08T21:37:31.669Z,4.70
2022-12-08T21:42:44.718Z,5.18
2022-12-08T21:47:48.958Z,3.35
2022-12-08T21:52:51.922Z,5.22
2022-12-08T21:57:56.918Z,8.65
2022-12-08T22:02:59.895Z,5.03
2022-12-08T22:08:02.798Z,4.05
2022-12-08T22:13:07.255Z,4.03
2022-12-08T22:18:11.329Z,3.75
2022-12-08T22:23:14.470Z,2.67
2022-12-08T22:28:18.635Z,4.40
2022-12-08T22:33:21.561Z,3.88
2022-12-08T22:38:24.417Z,3.15
2022-12-08T22:43:29.555Z,3.35
2022-12-08T22:48:32.509Z,3.63
2022-12-08T22:53:35.450Z,3.22
2022-12-08T22:58:40.881Z,2.85
2022-12-08T23:03:43.780Z,4.78
2022-12-08T23:08:46.687Z,3.17
2022-12-08T23:13:50.867Z,4.00
2022-12-08T23:18:53.634Z,4.30
2022-12-08T23:23:56.359Z,3.58
2022-12-08T23:29:01.194Z,3.90
2022-12-08T23:34:04.021Z,2.85
2022-12-08T23:39:07.350Z,4.65
2022-12-08T23:44:11.978Z,3.45
2022-12-08T23:49:14.769Z,3.78
2022-12-08T23:54:17.993Z,4.50
2022-12-08T23:59:22.135Z,4.90
